Shana Des Slops — FFZR — position and weather

sailwx.info

Track history (hours):
 
Tides and Currents Weather Stations Pressure Air Temp Water Temp Dewpoint Dewpoint Depression Visibility Wind Speed Wind Dir Waves Ship Positions

Shana Des Slops

Last reported at 2016-Sep-27 00:33 UTC. Time now 2016-Sep-27 08:46 UTC.
Position N 43°24' E 004°60'.

Length 47 m; draft 3.2 m.

Type: Ship. MMSI: 228003800.

Date/timePositionNaut miles runAvg speedWind from/ knotsBaromVisibWave heightAir tempDewpointWater temp
2016-Sep-27 00:33N 43°24' E 004°60'0 0.0
2016-Sep-26 20:32N 43°24' E 004°60'0 0.0
2016-Sep-26 19:32N 43°24' E 004°60'0 0.0
2016-Sep-26 15:32N 43°24' E 004°60'0 0.0
2016-Sep-26 13:31N 43°24' E 004°60'0 0.0
2016-Sep-26 11:31N 43°24' E 004°60'0 0.0
2016-Sep-26 08:32N 43°24' E 004°60'0 0.0
2016-Sep-26 02:32N 43°24' E 004°60'0 0.0
2016-Sep-26 01:32N 43°24' E 004°60'0 0.0
2016-Sep-26 00:32N 43°24' E 004°60'0 0.0
2016-Sep-25 21:32N 43°24' E 004°60'0 0.0
2016-Sep-25 17:28N 43°24' E 004°60'0 0.0
2016-Sep-25 16:31N 43°24' E 004°60'0 0.0
2016-Sep-25 15:31N 43°24' E 004°60'0 0.0
2016-Sep-25 14:31N 43°24' E 004°60'0 0.0
2016-Sep-25 12:33N 43°24' E 004°60'0 0.0
2016-Sep-25 11:33N 43°24' E 004°60'0 0.0
2016-Sep-25 10:29N 43°24' E 004°60'0 0.0
2016-Sep-25 09:32N 43°24' E 004°60'0 0.0
2016-Sep-25 07:32N 43°24' E 004°60'0 0.0
2016-Sep-25 04:32N 43°24' E 004°60'0 0.0
2016-Sep-25 00:32N 43°24' E 004°60'0 0.0
2016-Sep-24 22:32N 43°24' E 004°60'0 0.0
2016-Sep-24 21:31N 43°24' E 004°60'0 0.0
2016-Sep-24 19:31N 43°24' E 004°60'0 0.0
2016-Sep-24 18:31N 43°24' E 004°60'0 0.0
2016-Sep-24 17:31N 43°24' E 004°60'0 0.0
2016-Sep-24 16:31N 43°24' E 004°60'0 0.0
2016-Sep-24 14:31N 43°24' E 004°60'0 0.0
2016-Sep-24 12:31N 43°24' E 004°60'0 0.0
2016-Sep-24 10:32N 43°24' E 004°60'0 0.0
2016-Sep-24 09:33N 43°24' E 004°60'0 0.0
2016-Sep-24 03:33N 43°24' E 004°60'0 0.0
2016-Sep-24 02:33N 43°24' E 004°60'0 0.0
2016-Sep-24 01:33N 43°24' E 004°60'0 0.0
2016-Sep-24 00:33N 43°24' E 004°60'0 0.0
2016-Sep-23 19:33N 43°24' E 004°60'0 0.0
2016-Sep-23 17:32N 43°24' E 004°60'0 0.4
2016-Sep-23 16:33N 43°24' E 004°59'0 0.2
2016-Sep-23 15:32N 43°24' E 004°60'0 0.0
2016-Sep-23 13:32N 43°24' E 004°60'44 4.9
2016-Sep-23 04:33N 43°07' E 005°55'0 0.0
2016-Sep-23 03:33N 43°07' E 005°55'0 0.0
2016-Sep-23 02:33N 43°07' E 005°55'0 0.0
2016-Sep-23 01:33N 43°07' E 005°55'0 0.0
2016-Sep-23 00:31N 43°07' E 005°55'0 0.0
2016-Sep-22 23:31N 43°07' E 005°55'0 0.0
2016-Sep-22 20:31N 43°07' E 005°55'0 0.0
2016-Sep-22 12:31N 43°07' E 005°55'29 3.5
2016-Sep-22 04:14N 43°12' E 005°16'7 9.1
2016-Sep-22 03:30N 43°15' E 005°08'11 3.7
2016-Sep-22 00:32N 43°24' E 004°60'0 0.0
2016-Sep-21 23:32N 43°24' E 004°60'0 0.0
2016-Sep-21 22:32N 43°24' E 004°60'0 0.0
2016-Sep-21 19:33N 43°24' E 004°60'0 0.0
2016-Sep-21 16:33N 43°24' E 004°60'0 0.0
2016-Sep-21 09:33N 43°24' E 004°60'0 0.0
2016-Sep-21 08:33N 43°24' E 004°60'0 0.0
2016-Sep-19 13:33N 43°24' E 004°60'0 0.0
2016-Sep-19 12:33N 43°24' E 004°60'0 0.5
2016-Sep-19 11:33N 43°24' E 004°60'0 0.0
2016-Sep-19 09:33N 43°24' E 004°60'0 0.2
2016-Sep-19 07:31N 43°24' E 004°60'0 0.0
2016-Sep-19 06:31N 43°24' E 004°60'0 0.0
2016-Sep-19 03:22N 43°24' E 004°60'0 0.0
2016-Sep-19 02:31N 43°24' E 004°60'0 0.0
2016-Sep-19 00:31N 43°24' E 004°60'0 0.0
2016-Sep-18 19:33N 43°24' E 004°60'0 0.0
2016-Sep-18 15:32N 43°24' E 004°60'0 0.0
2016-Sep-18 14:32N 43°24' E 004°60'0 0.0
2016-Sep-18 10:33N 43°24' E 004°60'0 0.0
2016-Sep-18 09:33N 43°24' E 004°60'0 0.0
2016-Sep-18 02:32N 43°24' E 004°60'0 0.0
2016-Sep-18 01:33N 43°24' E 004°60'0 0.0
2016-Sep-18 00:32N 43°24' E 004°60'0 0.0
2016-Sep-17 22:28N 43°24' E 004°60'0 0.0
2016-Sep-17 21:31N 43°24' E 004°60'0 0.0
2016-Sep-17 20:28N 43°24' E 004°60'0 0.0
2016-Sep-17 19:13N 43°24' E 004°60'0 0.0
2016-Sep-17 13:31N 43°24' E 004°60'0 0.0
2016-Sep-17 12:31N 43°24' E 004°60'0 0.0
2016-Sep-17 10:31N 43°24' E 004°60'0 0.0
2016-Sep-17 09:31N 43°24' E 004°60'0 0.0
2016-Sep-17 08:32N 43°24' E 004°60'0 0.0
2016-Sep-17 07:31N 43°24' E 004°60'0 0.0
2016-Sep-17 05:31N 43°24' E 004°60'0 0.0
2016-Sep-17 04:31N 43°24' E 004°60'  
Track history (hours):
 
Tides and Currents Weather Stations Pressure Air Temp Water Temp Dewpoint Dewpoint Depression Visibility Wind Speed Wind Dir Waves Ship Positions

Shana Des Slops

Last reported at 2016-Sep-27 00:33 UTC. Time now 2016-Sep-27 08:46 UTC.
Position N 43°24' E 004°60'.

Length 47 m; draft 3.2 m.

Type: Ship. MMSI: 228003800.

Date/timePositionNaut miles runAvg speedWind from/ knotsBaromVisibWave heightAir tempDewpointWater temp
2016-Sep-27 00:33N 43°24' E 004°60'0 0.0
2016-Sep-26 20:32N 43°24' E 004°60'0 0.0
2016-Sep-26 19:32N 43°24' E 004°60'0 0.0
2016-Sep-26 15:32N 43°24' E 004°60'0 0.0
2016-Sep-26 13:31N 43°24' E 004°60'0 0.0
2016-Sep-26 11:31N 43°24' E 004°60'0 0.0
2016-Sep-26 08:32N 43°24' E 004°60'0 0.0
2016-Sep-26 02:32N 43°24' E 004°60'0 0.0
2016-Sep-26 01:32N 43°24' E 004°60'0 0.0
2016-Sep-26 00:32N 43°24' E 004°60'0 0.0
2016-Sep-25 21:32N 43°24' E 004°60'0 0.0
2016-Sep-25 17:28N 43°24' E 004°60'0 0.0
2016-Sep-25 16:31N 43°24' E 004°60'0 0.0
2016-Sep-25 15:31N 43°24' E 004°60'0 0.0
2016-Sep-25 14:31N 43°24' E 004°60'0 0.0
2016-Sep-25 12:33N 43°24' E 004°60'0 0.0
2016-Sep-25 11:33N 43°24' E 004°60'0 0.0
2016-Sep-25 10:29N 43°24' E 004°60'0 0.0
2016-Sep-25 09:32N 43°24' E 004°60'0 0.0
2016-Sep-25 07:32N 43°24' E 004°60'0 0.0
2016-Sep-25 04:32N 43°24' E 004°60'0 0.0
2016-Sep-25 00:32N 43°24' E 004°60'0 0.0
2016-Sep-24 22:32N 43°24' E 004°60'0 0.0
2016-Sep-24 21:31N 43°24' E 004°60'0 0.0
2016-Sep-24 19:31N 43°24' E 004°60'0 0.0
2016-Sep-24 18:31N 43°24' E 004°60'0 0.0
2016-Sep-24 17:31N 43°24' E 004°60'0 0.0
2016-Sep-24 16:31N 43°24' E 004°60'0 0.0
2016-Sep-24 14:31N 43°24' E 004°60'0 0.0
2016-Sep-24 12:31N 43°24' E 004°60'0 0.0
2016-Sep-24 10:32N 43°24' E 004°60'0 0.0
2016-Sep-24 09:33N 43°24' E 004°60'0 0.0
2016-Sep-24 03:33N 43°24' E 004°60'0 0.0
2016-Sep-24 02:33N 43°24' E 004°60'0 0.0
2016-Sep-24 01:33N 43°24' E 004°60'0 0.0
2016-Sep-24 00:33N 43°24' E 004°60'0 0.0
2016-Sep-23 19:33N 43°24' E 004°60'0 0.0
2016-Sep-23 17:32N 43°24' E 004°60'0 0.4
2016-Sep-23 16:33N 43°24' E 004°59'0 0.2
2016-Sep-23 15:32N 43°24' E 004°60'0 0.0
2016-Sep-23 13:32N 43°24' E 004°60'44 4.9
2016-Sep-23 04:33N 43°07' E 005°55'0 0.0
2016-Sep-23 03:33N 43°07' E 005°55'0 0.0
2016-Sep-23 02:33N 43°07' E 005°55'0 0.0
2016-Sep-23 01:33N 43°07' E 005°55'0 0.0
2016-Sep-23 00:31N 43°07' E 005°55'0 0.0
2016-Sep-22 23:31N 43°07' E 005°55'0 0.0
2016-Sep-22 20:31N 43°07' E 005°55'0 0.0
2016-Sep-22 12:31N 43°07' E 005°55'29 3.5
2016-Sep-22 04:14N 43°12' E 005°16'7 9.1
2016-Sep-22 03:30N 43°15' E 005°08'11 3.7
2016-Sep-22 00:32N 43°24' E 004°60'0 0.0
2016-Sep-21 23:32N 43°24' E 004°60'0 0.0
2016-Sep-21 22:32N 43°24' E 004°60'0 0.0
2016-Sep-21 19:33N 43°24' E 004°60'0 0.0
2016-Sep-21 16:33N 43°24' E 004°60'0 0.0
2016-Sep-21 09:33N 43°24' E 004°60'0 0.0
2016-Sep-21 08:33N 43°24' E 004°60'0 0.0
2016-Sep-19 13:33N 43°24' E 004°60'0 0.0
2016-Sep-19 12:33N 43°24' E 004°60'0 0.5
2016-Sep-19 11:33N 43°24' E 004°60'0 0.0
2016-Sep-19 09:33N 43°24' E 004°60'0 0.2
2016-Sep-19 07:31N 43°24' E 004°60'0 0.0
2016-Sep-19 06:31N 43°24' E 004°60'0 0.0
2016-Sep-19 03:22N 43°24' E 004°60'0 0.0
2016-Sep-19 02:31N 43°24' E 004°60'0 0.0
2016-Sep-19 00:31N 43°24' E 004°60'0 0.0
2016-Sep-18 19:33N 43°24' E 004°60'0 0.0
2016-Sep-18 15:32N 43°24' E 004°60'0 0.0
2016-Sep-18 14:32N 43°24' E 004°60'0 0.0
2016-Sep-18 10:33N 43°24' E 004°60'0 0.0
2016-Sep-18 09:33N 43°24' E 004°60'0 0.0
2016-Sep-18 02:32N 43°24' E 004°60'0 0.0
2016-Sep-18 01:33N 43°24' E 004°60'0 0.0
2016-Sep-18 00:32N 43°24' E 004°60'0 0.0
2016-Sep-17 22:28N 43°24' E 004°60'0 0.0
2016-Sep-17 21:31N 43°24' E 004°60'0 0.0
2016-Sep-17 20:28N 43°24' E 004°60'0 0.0
2016-Sep-17 19:13N 43°24' E 004°60'0 0.0
2016-Sep-17 13:31N 43°24' E 004°60'0 0.0
2016-Sep-17 12:31N 43°24' E 004°60'0 0.0
2016-Sep-17 10:31N 43°24' E 004°60'0 0.0
2016-Sep-17 09:31N 43°24' E 004°60'0 0.0
2016-Sep-17 08:32N 43°24' E 004°60'0 0.0
2016-Sep-17 07:31N 43°24' E 004°60'0 0.0
2016-Sep-17 05:31N 43°24' E 004°60'0 0.0
2016-Sep-17 04:31N 43°24' E 004°60'  

Dump ship's entire track history